sensor_id;sensor_type;location;lat;lon;timestamp;temperature;humidity
30069;DHT22;16894;49.456;10.644;2023-10-13T00:02:01;14.70;56.20
30069;DHT22;16894;49.456;10.644;2023-10-13T00:04:31;14.70;54.20
30069;DHT22;16894;49.456;10.644;2023-10-13T00:07:07;14.70;54.00
30069;DHT22;16894;49.456;10.644;2023-10-13T00:09:35;14.70;53.20
30069;DHT22;16894;49.456;10.644;2023-10-13T00:12:07;14.70;53.10
30069;DHT22;16894;49.456;10.644;2023-10-13T00:14:39;14.70;53.40
30069;DHT22;16894;49.456;10.644;2023-10-13T00:17:07;14.70;52.70
30069;DHT22;16894;49.456;10.644;2023-10-13T00:19:35;14.70;52.20
30069;DHT22;16894;49.456;10.644;2023-10-13T00:22:11;14.70;52.10
30069;DHT22;16894;49.456;10.644;2023-10-13T00:24:42;14.70;51.10
30069;DHT22;16894;49.456;10.644;2023-10-13T00:27:21;14.70;50.70
30069;DHT22;16894;49.456;10.644;2023-10-13T00:30:07;14.70;50.30
30069;DHT22;16894;49.456;10.644;2023-10-13T00:32:52;14.70;48.10
30069;DHT22;16894;49.456;10.644;2023-10-13T00:35:27;14.70;47.20
30069;DHT22;16894;49.456;10.644;2023-10-13T00:37:58;14.70;48.00
30069;DHT22;16894;49.456;10.644;2023-10-13T00:40:44;14.70;48.20
30069;DHT22;16894;49.456;10.644;2023-10-13T00:43:21;14.80;49.70
30069;DHT22;16894;49.456;10.644;2023-10-13T00:45:55;14.80;47.60
30069;DHT22;16894;49.456;10.644;2023-10-13T00:48:36;14.70;47.00
30069;DHT22;16894;49.456;10.644;2023-10-13T00:51:09;14.70;47.90
30069;DHT22;16894;49.456;10.644;2023-10-13T00:53:44;14.60;48.30
30069;DHT22;16894;49.456;10.644;2023-10-13T00:56:12;14.60;49.00
30069;DHT22;16894;49.456;10.644;2023-10-13T00:58:48;14.60;48.70
30069;DHT22;16894;49.456;10.644;2023-10-13T01:01:18;14.60;46.60
30069;DHT22;16894;49.456;10.644;2023-10-13T01:03:47;14.60;47.40
30069;DHT22;16894;49.456;10.644;2023-10-13T01:06:21;14.50;48.00
30069;DHT22;16894;49.456;10.644;2023-10-13T01:09:08;14.50;48.90
30069;DHT22;16894;49.456;10.644;2023-10-13T01:11:45;14.50;49.20
30069;DHT22;16894;49.456;10.644;2023-10-13T01:14:14;14.50;50.00
30069;DHT22;16894;49.456;10.644;2023-10-13T01:16:43;14.50;51.10
30069;DHT22;16894;49.456;10.644;2023-10-13T01:19:16;14.50;51.00
30069;DHT22;16894;49.456;10.644;2023-10-13T01:21:48;14.50;50.70
30069;DHT22;16894;49.456;10.644;2023-10-13T01:24:14;14.50;50.30
30069;DHT22;16894;49.456;10.644;2023-10-13T01:26:43;14.50;44.10
30069;DHT22;16894;49.456;10.644;2023-10-13T01:29:09;14.40;45.50
30069;DHT22;16894;49.456;10.644;2023-10-13T01:31:43;14.40;48.90
30069;DHT22;16894;49.456;10.644;2023-10-13T01:34:16;14.40;50.70
30069;DHT22;16894;49.456;10.644;2023-10-13T01:36:56;14.40;49.90
30069;DHT22;16894;49.456;10.644;2023-10-13T01:39:24;14.40;56.20
30069;DHT22;16894;49.456;10.644;2023-10-13T01:41:54;14.40;57.30
30069;DHT22;16894;49.456;10.644;2023-10-13T01:44:26;14.30;57.90
30069;DHT22;16894;49.456;10.644;2023-10-13T01:46:59;14.30;59.50
30069;DHT22;16894;49.456;10.644;2023-10-13T01:49:25;14.30;59.10
30069;DHT22;16894;49.456;10.644;2023-10-13T01:51:51;14.30;59.90
30069;DHT22;16894;49.456;10.644;2023-10-13T01:54:17;14.30;60.30
30069;DHT22;16894;49.456;10.644;2023-10-13T01:56:43;14.30;58.80
30069;DHT22;16894;49.456;10.644;2023-10-13T01:59:11;14.20;58.70
30069;DHT22;16894;49.456;10.644;2023-10-13T02:01:37;14.30;60.40
30069;DHT22;16894;49.456;10.644;2023-10-13T02:04:04;14.20;53.80
30069;DHT22;16894;49.456;10.644;2023-10-13T02:06:30;14.30;59.20
30069;DHT22;16894;49.456;10.644;2023-10-13T02:09:05;14.30;57.40
30069;DHT22;16894;49.456;10.644;2023-10-13T02:11:40;14.40;55.70
30069;DHT22;16894;49.456;10.644;2023-10-13T02:14:07;14.40;54.20
30069;DHT22;16894;49.456;10.644;2023-10-13T02:16:37;14.40;50.70
30069;DHT22;16894;49.456;10.644;2023-10-13T02:19:03;14.50;50.00
30069;DHT22;16894;49.456;10.644;2023-10-13T02:21:32;14.40;46.20
30069;DHT22;16894;49.456;10.644;2023-10-13T02:23:58;14.40;49.60
30069;DHT22;16894;49.456;10.644;2023-10-13T02:26:31;14.40;50.30
30069;DHT22;16894;49.456;10.644;2023-10-13T02:28:57;14.50;50.10
30069;DHT22;16894;49.456;10.644;2023-10-13T02:31:23;14.60;48.70
30069;DHT22;16894;49.456;10.644;2023-10-13T02:33:52;14.60;48.70
30069;DHT22;16894;49.456;10.644;2023-10-13T02:36:18;14.60;49.00
30069;DHT22;16894;49.456;10.644;2023-10-13T02:38:49;14.60;46.20
30069;DHT22;16894;49.456;10.644;2023-10-13T02:41:20;14.60;45.40
30069;DHT22;16894;49.456;10.644;2023-10-13T02:43:55;14.60;43.10
30069;DHT22;16894;49.456;10.644;2023-10-13T02:46:22;14.60;43.60
30069;DHT22;16894;49.456;10.644;2023-10-13T02:48:49;14.60;45.10
30069;DHT22;16894;49.456;10.644;2023-10-13T02:51:19;14.60;45.80
30069;DHT22;16894;49.456;10.644;2023-10-13T02:53:52;14.60;45.60
30069;DHT22;16894;49.456;10.644;2023-10-13T02:56:19;14.60;44.80
30069;DHT22;16894;49.456;10.644;2023-10-13T02:58:50;14.60;45.50
30069;DHT22;16894;49.456;10.644;2023-10-13T03:01:22;14.60;45.80
30069;DHT22;16894;49.456;10.644;2023-10-13T03:03:54;14.60;44.80
30069;DHT22;16894;49.456;10.644;2023-10-13T03:06:22;14.50;47.50
30069;DHT22;16894;49.456;10.644;2023-10-13T03:09:06;14.40;49.60
30069;DHT22;16894;49.456;10.644;2023-10-13T03:11:48;14.40;54.30
30069;DHT22;16894;49.456;10.644;2023-10-13T03:14:22;14.30;56.60
30069;DHT22;16894;49.456;10.644;2023-10-13T03:16:58;14.30;59.10
30069;DHT22;16894;49.456;10.644;2023-10-13T03:19:28;14.30;59.70
30069;DHT22;16894;49.456;10.644;2023-10-13T03:22:05;14.20;60.10
30069;DHT22;16894;49.456;10.644;2023-10-13T03:24:38;14.20;58.90
30069;DHT22;16894;49.456;10.644;2023-10-13T03:27:11;14.20;57.70
30069;DHT22;16894;49.456;10.644;2023-10-13T03:29:41;14.10;57.60
30069;DHT22;16894;49.456;10.644;2023-10-13T03:32:11;14.10;56.90
30069;DHT22;16894;49.456;10.644;2023-10-13T03:34:47;14.10;57.40
30069;DHT22;16894;49.456;10.644;2023-10-13T03:37:24;14.00;58.00
30069;DHT22;16894;49.456;10.644;2023-10-13T03:40:09;14.00;58.30
30069;DHT22;16894;49.456;10.644;2023-10-13T03:42:57;14.00;58.80
30069;DHT22;16894;49.456;10.644;2023-10-13T03:45:38;13.90;57.10
30069;DHT22;16894;49.456;10.644;2023-10-13T03:48:13;13.90;59.60
30069;DHT22;16894;49.456;10.644;2023-10-13T03:50:53;13.80;61.40
30069;DHT22;16894;49.456;10.644;2023-10-13T03:53:41;13.80;62.10
30069;DHT22;16894;49.456;10.644;2023-10-13T03:56:26;13.70;61.50
30069;DHT22;16894;49.456;10.644;2023-10-13T03:58:57;13.60;62.20
30069;DHT22;16894;49.456;10.644;2023-10-13T04:01:47;13.60;61.60
30069;DHT22;16894;49.456;10.644;2023-10-13T04:04:15;13.50;60.60
30069;DHT22;16894;49.456;10.644;2023-10-13T04:06:42;13.50;62.00
30069;DHT22;16894;49.456;10.644;2023-10-13T04:09:22;13.50;62.00
30069;DHT22;16894;49.456;10.644;2023-10-13T04:11:58;13.50;62.50
30069;DHT22;16894;49.456;10.644;2023-10-13T04:14:38;13.50;62.80
30069;DHT22;16894;49.456;10.644;2023-10-13T04:17:22;13.50;61.90
30069;DHT22;16894;49.456;10.644;2023-10-13T04:19:50;13.40;53.50
30069;DHT22;16894;49.456;10.644;2023-10-13T04:25:17;13.40;62.20
30069;DHT22;16894;49.456;10.644;2023-10-13T04:28:06;13.40;60.80
30069;DHT22;16894;49.456;10.644;2023-10-13T04:30:45;13.40;59.80
30069;DHT22;16894;49.456;10.644;2023-10-13T04:33:30;13.40;61.00
30069;DHT22;16894;49.456;10.644;2023-10-13T04:36:14;13.40;60.10
30069;DHT22;16894;49.456;10.644;2023-10-13T04:38:54;13.50;60.00
30069;DHT22;16894;49.456;10.644;2023-10-13T04:41:41;13.60;60.90
30069;DHT22;16894;49.456;10.644;2023-10-13T04:44:17;13.70;60.40
30069;DHT22;16894;49.456;10.644;2023-10-13T04:47:01;13.80;59.50
30069;DHT22;16894;49.456;10.644;2023-10-13T04:49:29;13.80;57.10
30069;DHT22;16894;49.456;10.644;2023-10-13T04:52:05;13.80;51.60
30069;DHT22;16894;49.456;10.644;2023-10-13T04:54:37;13.80;46.90
30069;DHT22;16894;49.456;10.644;2023-10-13T04:57:09;13.90;43.80
30069;DHT22;16894;49.456;10.644;2023-10-13T04:59:53;13.90;38.40
30069;DHT22;16894;49.456;10.644;2023-10-13T05:02:35;13.90;31.00
30069;DHT22;16894;49.456;10.644;2023-10-13T05:05:19;13.90;31.20
30069;DHT22;16894;49.456;10.644;2023-10-13T05:07:51;13.90;21.30
30069;DHT22;16894;49.456;10.644;2023-10-13T05:10:36;13.90;20.10
30069;DHT22;16894;49.456;10.644;2023-10-13T05:13:21;13.80;17.00
30069;DHT22;16894;49.456;10.644;2023-10-13T05:16:06;13.70;11.40
30069;DHT22;16894;49.456;10.644;2023-10-13T05:18:50;13.80;1.10
30069;DHT22;16894;49.456;10.644;2023-10-13T05:21:34;13.80;1.00
30069;DHT22;16894;49.456;10.644;2023-10-13T05:24:18;13.80;3.50
30069;DHT22;16894;49.456;10.644;2023-10-13T05:27:03;13.80;1.00
30069;DHT22;16894;49.456;10.644;2023-10-13T05:29:48;13.80;1.00
30069;DHT22;16894;49.456;10.644;2023-10-13T05:32:33;13.80;1.00
30069;DHT22;16894;49.456;10.644;2023-10-13T05:35:19;13.70;1.00
30069;DHT22;16894;49.456;10.644;2023-10-13T05:38:04;13.70;1.00
30069;DHT22;16894;49.456;10.644;2023-10-13T05:41:03;13.60;4.30
30069;DHT22;16894;49.456;10.644;2023-10-13T05:43:47;13.50;3.30
30069;DHT22;16894;49.456;10.644;2023-10-13T05:46:32;13.50;1.00
30069;DHT22;16894;49.456;10.644;2023-10-13T05:49:06;13.50;1.00
30069;DHT22;16894;49.456;10.644;2023-10-13T05:51:34;13.50;1.00
30069;DHT22;16894;49.456;10.644;2023-10-13T05:54:22;13.40;1.00
30069;DHT22;16894;49.456;10.644;2023-10-13T05:57:25;13.40;1.00
30069;DHT22;16894;49.456;10.644;2023-10-13T06:00:29;13.40;1.00
30069;DHT22;16894;49.456;10.644;2023-10-13T06:03:13;13.30;1.00
30069;DHT22;16894;49.456;10.644;2023-10-13T06:05:57;13.30;4.50
30069;DHT22;16894;49.456;10.644;2023-10-13T06:08:42;13.20;2.70
30069;DHT22;16894;49.456;10.644;2023-10-13T06:11:26;13.20;7.20
30069;DHT22;16894;49.456;10.644;2023-10-13T06:14:10;13.20;2.70
30069;DHT22;16894;49.456;10.644;2023-10-13T06:16:54;13.20;1.00
30069;DHT22;16894;49.456;10.644;2023-10-13T06:19:40;13.30;1.00
30069;DHT22;16894;49.456;10.644;2023-10-13T06:22:25;13.30;1.00
30069;DHT22;16894;49.456;10.644;2023-10-13T06:25:09;13.30;1.00
30069;DHT22;16894;49.456;10.644;2023-10-13T06:27:53;13.30;1.00
30069;DHT22;16894;49.456;10.644;2023-10-13T06:30:38;13.20;1.00
30069;DHT22;16894;49.456;10.644;2023-10-13T06:33:04;13.30;1.00
30069;DHT22;16894;49.456;10.644;2023-10-13T06:35:30;13.20;1.00
30069;DHT22;16894;49.456;10.644;2023-10-13T06:37:57;13.10;1.00
30069;DHT22;16894;49.456;10.644;2023-10-13T06:40:26;13.20;1.00
30069;DHT22;16894;49.456;10.644;2023-10-13T06:42:59;13.30;1.00
30069;DHT22;16894;49.456;10.644;2023-10-13T06:45:47;13.30;1.00
30069;DHT22;16894;49.456;10.644;2023-10-13T06:48:24;13.20;1.00
30069;DHT22;16894;49.456;10.644;2023-10-13T06:50:50;13.20;1.00
30069;DHT22;16894;49.456;10.644;2023-10-13T06:53:18;13.30;1.00
30069;DHT22;16894;49.456;10.644;2023-10-13T06:55:44;13.40;1.00
30069;DHT22;16894;49.456;10.644;2023-10-13T06:58:13;13.50;1.00
30069;DHT22;16894;49.456;10.644;2023-10-13T07:00:40;13.60;1.00
30069;DHT22;16894;49.456;10.644;2023-10-13T07:03:19;13.60;1.00
30069;DHT22;16894;49.456;10.644;2023-10-13T07:05:45;13.60;1.00
30069;DHT22;16894;49.456;10.644;2023-10-13T07:08:15;13.70;1.00
30069;DHT22;16894;49.456;10.644;2023-10-13T07:10:56;13.80;99.90
30069;DHT22;16894;49.456;10.644;2023-10-13T07:13:31;13.80;99.90
30069;DHT22;16894;49.456;10.644;2023-10-13T07:16:02;13.80;99.90
30069;DHT22;16894;49.456;10.644;2023-10-13T07:18:38;13.90;99.90
30069;DHT22;16894;49.456;10.644;2023-10-13T07:21:15;14.00;99.90
30069;DHT22;16894;49.456;10.644;2023-10-13T07:23:41;14.10;99.90
30069;DHT22;16894;49.456;10.644;2023-10-13T07:26:15;14.10;99.90
30069;DHT22;16894;49.456;10.644;2023-10-13T07:28:40;14.20;99.90
30069;DHT22;16894;49.456;10.644;2023-10-13T07:31:13;14.30;1.00
30069;DHT22;16894;49.456;10.644;2023-10-13T07:33:39;14.30;1.00
30069;DHT22;16894;49.456;10.644;2023-10-13T07:36:07;14.30;1.00
30069;DHT22;16894;49.456;10.644;2023-10-13T07:38:44;14.30;1.00
30069;DHT22;16894;49.456;10.644;2023-10-13T07:41:35;14.40;1.00
30069;DHT22;16894;49.456;10.644;2023-10-13T07:44:02;14.60;99.90
30069;DHT22;16894;49.456;10.644;2023-10-13T07:46:30;14.60;99.90
30069;DHT22;16894;49.456;10.644;2023-10-13T07:49:00;14.70;99.90
30069;DHT22;16894;49.456;10.644;2023-10-13T07:51:36;14.90;1.00
30069;DHT22;16894;49.456;10.644;2023-10-13T07:54:18;15.00;1.00
30069;DHT22;16894;49.456;10.644;2023-10-13T07:56:50;15.10;99.90
30069;DHT22;16894;49.456;10.644;2023-10-13T07:59:16;15.20;99.90
30069;DHT22;16894;49.456;10.644;2023-10-13T08:02:00;15.30;99.90
30069;DHT22;16894;49.456;10.644;2023-10-13T08:04:39;15.30;99.90
30069;DHT22;16894;49.456;10.644;2023-10-13T08:07:06;15.30;99.90
30069;DHT22;16894;49.456;10.644;2023-10-13T08:09:42;15.30;99.90
30069;DHT22;16894;49.456;10.644;2023-10-13T08:12:16;15.30;99.90
30069;DHT22;16894;49.456;10.644;2023-10-13T08:14:47;15.40;99.90
30069;DHT22;16894;49.456;10.644;2023-10-13T08:17:13;15.50;99.90
30069;DHT22;16894;49.456;10.644;2023-10-13T08:19:41;15.70;99.90
30069;DHT22;16894;49.456;10.644;2023-10-13T08:22:11;15.80;99.90
30069;DHT22;16894;49.456;10.644;2023-10-13T08:24:47;16.00;99.90
30069;DHT22;16894;49.456;10.644;2023-10-13T08:27:14;16.30;99.90
30069;DHT22;16894;49.456;10.644;2023-10-13T08:29:46;16.50;99.90
30069;DHT22;16894;49.456;10.644;2023-10-13T08:32:25;16.70;99.90
30069;DHT22;16894;49.456;10.644;2023-10-13T08:35:00;16.90;1.00
30069;DHT22;16894;49.456;10.644;2023-10-13T08:37:33;17.00;99.90
30069;DHT22;16894;49.456;10.644;2023-10-13T08:40:12;17.20;99.90
30069;DHT22;16894;49.456;10.644;2023-10-13T08:42:57;17.40;1.00
30069;DHT22;16894;49.456;10.644;2023-10-13T08:45:30;17.60;99.90
30069;DHT22;16894;49.456;10.644;2023-10-13T08:47:59;17.80;66.70
30069;DHT22;16894;49.456;10.644;2023-10-13T08:50:37;18.00;99.90
30069;DHT22;16894;49.456;10.644;2023-10-13T08:53:32;18.00;99.90
30069;DHT22;16894;49.456;10.644;2023-10-13T08:56:10;18.20;99.90
30069;DHT22;16894;49.456;10.644;2023-10-13T08:58:54;18.30;99.90
30069;DHT22;16894;49.456;10.644;2023-10-13T09:01:30;18.40;99.90
30069;DHT22;16894;49.456;10.644;2023-10-13T09:04:15;18.50;99.90
30069;DHT22;16894;49.456;10.644;2023-10-13T09:09:52;18.50;99.90
30069;DHT22;16894;49.456;10.644;2023-10-13T09:12:30;18.50;99.90
30069;DHT22;16894;49.456;10.644;2023-10-13T09:15:00;18.60;99.90
30069;DHT22;16894;49.456;10.644;2023-10-13T09:17:43;18.80;99.90
30069;DHT22;16894;49.456;10.644;2023-10-13T09:20:30;18.90;99.90
30069;DHT22;16894;49.456;10.644;2023-10-13T09:23:23;19.10;20.70
30069;DHT22;16894;49.456;10.644;2023-10-13T09:25:53;19.30;99.90
30069;DHT22;16894;49.456;10.644;2023-10-13T09:28:20;19.50;99.90
30069;DHT22;16894;49.456;10.644;2023-10-13T09:30:55;19.80;99.90
30069;DHT22;16894;49.456;10.644;2023-10-13T09:33:27;19.90;99.90
30069;DHT22;16894;49.456;10.644;2023-10-13T09:36:05;20.00;8.20
30069;DHT22;16894;49.456;10.644;2023-10-13T09:38:36;20.20;1.00
30069;DHT22;16894;49.456;10.644;2023-10-13T09:41:05;20.30;1.00
30069;DHT22;16894;49.456;10.644;2023-10-13T09:43:46;20.40;99.90
30069;DHT22;16894;49.456;10.644;2023-10-13T09:46:19;20.60;99.90
30069;DHT22;16894;49.456;10.644;2023-10-13T09:48:46;20.80;99.90
30069;DHT22;16894;49.456;10.644;2023-10-13T09:51:14;20.90;99.90
30069;DHT22;16894;49.456;10.644;2023-10-13T09:53:43;21.00;99.90
30069;DHT22;16894;49.456;10.644;2023-10-13T09:56:20;21.20;99.90
30069;DHT22;16894;49.456;10.644;2023-10-13T09:59:00;21.30;99.90
30069;DHT22;16894;49.456;10.644;2023-10-13T10:01:38;21.60;99.90
30069;DHT22;16894;49.456;10.644;2023-10-13T10:04:08;21.70;99.90
30069;DHT22;16894;49.456;10.644;2023-10-13T10:06:35;21.80;32.60
30069;DHT22;16894;49.456;10.644;2023-10-13T10:09:09;21.90;19.70
30069;DHT22;16894;49.456;10.644;2023-10-13T10:18:20;22.00;1.00
30069;DHT22;16894;49.456;10.644;2023-10-13T10:20:48;22.20;99.90
30069;DHT22;16894;49.456;10.644;2023-10-13T10:23:24;22.20;99.90
30069;DHT22;16894;49.456;10.644;2023-10-13T10:25:52;22.30;99.90
30069;DHT22;16894;49.456;10.644;2023-10-13T10:28:18;22.50;99.90
30069;DHT22;16894;49.456;10.644;2023-10-13T10:30:45;22.70;99.90
30069;DHT22;16894;49.456;10.644;2023-10-13T10:33:11;23.00;1.00
30069;DHT22;16894;49.456;10.644;2023-10-13T10:35:47;23.20;99.90
30069;DHT22;16894;49.456;10.644;2023-10-13T10:38:23;23.30;99.90
30069;DHT22;16894;49.456;10.644;2023-10-13T10:40:53;23.50;99.90
30069;DHT22;16894;49.456;10.644;2023-10-13T10:43:24;23.60;99.90
30069;DHT22;16894;49.456;10.644;2023-10-13T10:45:53;23.80;99.90
30069;DHT22;16894;49.456;10.644;2023-10-13T10:48:25;23.90;99.90
30069;DHT22;16894;49.456;10.644;2023-10-13T10:50:57;24.10;99.90
30069;DHT22;16894;49.456;10.644;2023-10-13T10:53:25;24.10;99.90
30069;DHT22;16894;49.456;10.644;2023-10-13T10:56:06;24.30;99.90
30069;DHT22;16894;49.456;10.644;2023-10-13T10:58:34;24.40;99.90
30069;DHT22;16894;49.456;10.644;2023-10-13T11:01:09;24.80;99.90
30069;DHT22;16894;49.456;10.644;2023-10-13T11:04:06;24.80;99.90
30069;DHT22;16894;49.456;10.644;2023-10-13T11:06:56;24.80;99.90
30069;DHT22;16894;49.456;10.644;2023-10-13T11:09:28;25.00;99.90
30069;DHT22;16894;49.456;10.644;2023-10-13T11:14:32;25.30;99.90
30069;DHT22;16894;49.456;10.644;2023-10-13T11:16:58;25.20;99.90
30069;DHT22;16894;49.456;10.644;2023-10-13T11:19:37;25.20;99.90
30069;DHT22;16894;49.456;10.644;2023-10-13T11:25:04;25.40;99.90
30069;DHT22;16894;49.456;10.644;2023-10-13T11:27:40;25.70;99.90
30069;DHT22;16894;49.456;10.644;2023-10-13T11:30:30;25.90;99.90
30069;DHT22;16894;49.456;10.644;2023-10-13T11:33:08;26.10;99.90
30069;DHT22;16894;49.456;10.644;2023-10-13T11:35:34;25.90;99.90
30069;DHT22;16894;49.456;10.644;2023-10-13T11:38:37;25.80;99.90
30069;DHT22;16894;49.456;10.644;2023-10-13T11:41:05;25.90;99.90
30069;DHT22;16894;49.456;10.644;2023-10-13T11:46:25;26.20;99.90
30069;DHT22;16894;49.456;10.644;2023-10-13T11:49:12;26.20;99.90
30069;DHT22;16894;49.456;10.644;2023-10-13T11:51:48;26.40;99.90
30069;DHT22;16894;49.456;10.644;2023-10-13T11:54:19;26.30;99.90
30069;DHT22;16894;49.456;10.644;2023-10-13T11:56:46;26.50;95.00
30069;DHT22;16894;49.456;10.644;2023-10-13T11:59:12;26.70;96.80
30069;DHT22;16894;49.456;10.644;2023-10-13T12:01:47;26.80;96.90
30069;DHT22;16894;49.456;10.644;2023-10-13T12:04:33;26.90;96.30
30069;DHT22;16894;49.456;10.644;2023-10-13T12:07:20;27.10;91.50
30069;DHT22;16894;49.456;10.644;2023-10-13T12:09:58;27.10;99.90
30069;DHT22;16894;49.456;10.644;2023-10-13T12:12:27;27.00;99.90
30069;DHT22;16894;49.456;10.644;2023-10-13T12:14:53;27.10;99.90
30069;DHT22;16894;49.456;10.644;2023-10-13T12:17:30;27.20;99.90
30069;DHT22;16894;49.456;10.644;2023-10-13T12:20:02;27.50;99.90
30069;DHT22;16894;49.456;10.644;2023-10-13T12:22:34;27.40;97.40
30069;DHT22;16894;49.456;10.644;2023-10-13T12:25:23;27.30;99.90
30069;DHT22;16894;49.456;10.644;2023-10-13T12:28:10;27.40;96.40
30069;DHT22;16894;49.456;10.644;2023-10-13T12:30:45;28.10;97.00
30069;DHT22;16894;49.456;10.644;2023-10-13T12:33:19;29.30;79.60
30069;DHT22;16894;49.456;10.644;2023-10-13T12:36:03;30.50;78.50
30069;DHT22;16894;49.456;10.644;2023-10-13T12:38:33;31.30;99.90
30069;DHT22;16894;49.456;10.644;2023-10-13T12:41:20;31.80;99.90
30069;DHT22;16894;49.456;10.644;2023-10-13T12:44:06;31.70;99.90
30069;DHT22;16894;49.456;10.644;2023-10-13T12:46:51;31.80;99.90
30069;DHT22;16894;49.456;10.644;2023-10-13T12:49:36;32.80;99.90
30069;DHT22;16894;49.456;10.644;2023-10-13T12:52:11;33.40;99.90
30069;DHT22;16894;49.456;10.644;2023-10-13T12:54:51;34.00;99.90
30069;DHT22;16894;49.456;10.644;2023-10-13T12:57:24;34.00;99.90
30069;DHT22;16894;49.456;10.644;2023-10-13T12:59:50;34.40;99.90
30069;DHT22;16894;49.456;10.644;2023-10-13T13:02:24;34.30;99.90
30069;DHT22;16894;49.456;10.644;2023-10-13T13:04:57;33.10;99.90
30069;DHT22;16894;49.456;10.644;2023-10-13T13:07:31;33.30;99.90
30069;DHT22;16894;49.456;10.644;2023-10-13T13:09:57;33.60;1.00
30069;DHT22;16894;49.456;10.644;2023-10-13T13:12:26;33.90;1.00
30069;DHT22;16894;49.456;10.644;2023-10-13T13:14:55;33.60;99.90
30069;DHT22;16894;49.456;10.644;2023-10-13T13:17:21;33.60;99.90
30069;DHT22;16894;49.456;10.644;2023-10-13T13:19:47;33.30;99.90
30069;DHT22;16894;49.456;10.644;2023-10-13T13:22:13;33.90;1.00
30069;DHT22;16894;49.456;10.644;2023-10-13T13:24:44;34.20;99.90
30069;DHT22;16894;49.456;10.644;2023-10-13T13:27:14;34.50;99.90
30069;DHT22;16894;49.456;10.644;2023-10-13T13:29:45;35.60;99.90
30069;DHT22;16894;49.456;10.644;2023-10-13T13:32:11;36.10;99.90
30069;DHT22;16894;49.456;10.644;2023-10-13T13:34:47;36.30;99.90
30069;DHT22;16894;49.456;10.644;2023-10-13T13:37:33;37.00;99.90
30069;DHT22;16894;49.456;10.644;2023-10-13T13:39:59;37.90;99.90
30069;DHT22;16894;49.456;10.644;2023-10-13T13:42:40;37.30;99.90
30069;DHT22;16894;49.456;10.644;2023-10-13T13:45:12;37.40;99.90
30069;DHT22;16894;49.456;10.644;2023-10-13T13:47:37;36.90;99.90
30069;DHT22;16894;49.456;10.644;2023-10-13T13:50:03;36.50;99.90
30069;DHT22;16894;49.456;10.644;2023-10-13T13:52:40;35.20;99.90
30069;DHT22;16894;49.456;10.644;2023-10-13T13:55:11;34.60;99.90
30069;DHT22;16894;49.456;10.644;2023-10-13T13:57:43;33.70;99.90
30069;DHT22;16894;49.456;10.644;2023-10-13T14:00:11;32.00;99.90
30069;DHT22;16894;49.456;10.644;2023-10-13T14:02:43;30.80;99.90
30069;DHT22;16894;49.456;10.644;2023-10-13T14:05:15;30.50;99.90
30069;DHT22;16894;49.456;10.644;2023-10-13T14:07:44;29.80;99.90
30069;DHT22;16894;49.456;10.644;2023-10-13T14:10:16;29.30;99.90
30069;DHT22;16894;49.456;10.644;2023-10-13T14:13:08;28.90;99.90
30069;DHT22;16894;49.456;10.644;2023-10-13T14:15:42;28.60;99.90
30069;DHT22;16894;49.456;10.644;2023-10-13T14:18:10;28.40;99.90
30069;DHT22;16894;49.456;10.644;2023-10-13T14:20:41;28.20;99.90
30069;DHT22;16894;49.456;10.644;2023-10-13T14:23:08;28.00;99.90
30069;DHT22;16894;49.456;10.644;2023-10-13T14:25:37;28.20;99.90
30069;DHT22;16894;49.456;10.644;2023-10-13T14:28:06;28.10;99.90
30069;DHT22;16894;49.456;10.644;2023-10-13T14:30:33;28.10;99.90
30069;DHT22;16894;49.456;10.644;2023-10-13T14:32:59;27.90;99.90
30069;DHT22;16894;49.456;10.644;2023-10-13T14:35:25;27.60;99.90
30069;DHT22;16894;49.456;10.644;2023-10-13T14:37:54;27.40;99.90
30069;DHT22;16894;49.456;10.644;2023-10-13T14:40:20;27.30;99.90
30069;DHT22;16894;49.456;10.644;2023-10-13T14:42:49;27.20;99.90
30069;DHT22;16894;49.456;10.644;2023-10-13T14:45:14;27.20;99.90
30069;DHT22;16894;49.456;10.644;2023-10-13T14:47:45;27.10;99.90
30069;DHT22;16894;49.456;10.644;2023-10-13T14:50:12;27.00;99.90
30069;DHT22;16894;49.456;10.644;2023-10-13T14:52:50;26.90;99.90
30069;DHT22;16894;49.456;10.644;2023-10-13T14:55:16;26.80;99.90
30069;DHT22;16894;49.456;10.644;2023-10-13T14:57:48;26.70;99.90
30069;DHT22;16894;49.456;10.644;2023-10-13T15:00:15;26.50;99.90
30069;DHT22;16894;49.456;10.644;2023-10-13T15:02:43;26.40;99.90
30069;DHT22;16894;49.456;10.644;2023-10-13T15:05:10;26.30;99.90
30069;DHT22;16894;49.456;10.644;2023-10-13T15:07:43;26.20;99.90
30069;DHT22;16894;49.456;10.644;2023-10-13T15:10:14;26.10;99.90
30069;DHT22;16894;49.456;10.644;2023-10-13T15:12:43;26.00;99.90
30069;DHT22;16894;49.456;10.644;2023-10-13T15:15:13;25.90;99.90
30069;DHT22;16894;49.456;10.644;2023-10-13T15:17:44;25.90;99.90
30069;DHT22;16894;49.456;10.644;2023-10-13T15:20:10;25.80;99.90
30069;DHT22;16894;49.456;10.644;2023-10-13T15:22:44;25.70;99.90
30069;DHT22;16894;49.456;10.644;2023-10-13T15:25:13;25.60;99.90
30069;DHT22;16894;49.456;10.644;2023-10-13T15:28:00;25.50;99.90
30069;DHT22;16894;49.456;10.644;2023-10-13T15:30:30;25.50;99.90
30069;DHT22;16894;49.456;10.644;2023-10-13T15:33:14;25.40;99.90
30069;DHT22;16894;49.456;10.644;2023-10-13T15:35:40;25.30;99.90
30069;DHT22;16894;49.456;10.644;2023-10-13T15:38:09;25.30;99.90
30069;DHT22;16894;49.456;10.644;2023-10-13T15:40:44;25.20;99.90
30069;DHT22;16894;49.456;10.644;2023-10-13T15:43:10;25.00;99.90
30069;DHT22;16894;49.456;10.644;2023-10-13T15:45:36;24.80;99.90
30069;DHT22;16894;49.456;10.644;2023-10-13T15:48:05;24.70;99.90
30069;DHT22;16894;49.456;10.644;2023-10-13T15:50:36;24.60;99.90
30069;DHT22;16894;49.456;10.644;2023-10-13T15:53:05;24.40;99.90
30069;DHT22;16894;49.456;10.644;2023-10-13T15:55:35;24.20;99.90
30069;DHT22;16894;49.456;10.644;2023-10-13T15:58:02;24.10;99.90
30069;DHT22;16894;49.456;10.644;2023-10-13T16:00:28;24.00;99.90
30069;DHT22;16894;49.456;10.644;2023-10-13T16:02:57;23.80;99.90
30069;DHT22;16894;49.456;10.644;2023-10-13T16:05:28;23.70;99.90
30069;DHT22;16894;49.456;10.644;2023-10-13T16:07:54;23.60;99.90
30069;DHT22;16894;49.456;10.644;2023-10-13T16:10:23;23.40;99.90
30069;DHT22;16894;49.456;10.644;2023-10-13T16:12:49;23.30;99.90
30069;DHT22;16894;49.456;10.644;2023-10-13T16:15:15;23.20;99.90
30069;DHT22;16894;49.456;10.644;2023-10-13T16:17:41;23.10;99.90
30069;DHT22;16894;49.456;10.644;2023-10-13T16:20:10;23.00;99.90
30069;DHT22;16894;49.456;10.644;2023-10-13T16:22:46;22.80;99.90